createdAt,value
2022-09-10T00:00:00.190Z,0
2022-09-10T00:05:00.171Z,0
2022-09-10T00:10:00.178Z,0
2022-09-10T00:15:00.166Z,0
2022-09-10T00:20:00.189Z,0
2022-09-10T00:25:00.314Z,0
2022-09-10T00:30:00.285Z,0
2022-09-10T00:35:00.229Z,0
2022-09-10T00:40:00.350Z,0
2022-09-10T00:45:00.187Z,0
2022-09-10T00:50:00.186Z,0
2022-09-10T00:55:00.164Z,0
2022-09-10T01:00:00.224Z,0
2022-09-10T01:05:00.174Z,0
2022-09-10T01:10:00.161Z,0
2022-09-10T01:15:00.188Z,0
2022-09-10T01:20:00.180Z,0
2022-09-10T01:25:00.182Z,0
2022-09-10T01:30:00.185Z,0
2022-09-10T01:35:00.183Z,0
2022-09-10T01:40:00.311Z,0
2022-09-10T01:45:00.181Z,0
2022-09-10T01:50:00.193Z,0
2022-09-10T01:55:00.170Z,0
2022-09-10T02:00:00.216Z,0
2022-09-10T02:05:00.174Z,0
2022-09-10T02:10:00.213Z,0
2022-09-10T02:15:00.165Z,0
2022-09-10T02:20:00.167Z,0
2022-09-10T02:25:00.185Z,0
2022-09-10T02:30:00.236Z,0
2022-09-10T02:35:00.181Z,0
2022-09-10T02:40:00.350Z,0
2022-09-10T02:45:00.168Z,0
2022-09-10T02:50:00.181Z,0
2022-09-10T02:55:00.170Z,0
2022-09-10T03:00:00.244Z,0
2022-09-10T03:05:00.184Z,0
2022-09-10T03:10:00.184Z,0
2022-09-10T03:15:00.189Z,0
2022-09-10T03:20:00.186Z,0
2022-09-10T03:25:00.167Z,0
2022-09-10T03:30:00.192Z,0
2022-09-10T03:35:00.234Z,0
2022-09-10T03:40:00.254Z,0
2022-09-10T03:45:00.157Z,0
2022-09-10T03:50:00.207Z,0
2022-09-10T03:55:00.224Z,0
2022-09-10T04:00:00.268Z,0
2022-09-10T04:05:00.210Z,0
2022-09-10T04:10:00.184Z,0
2022-09-10T04:15:00.191Z,0
2022-09-10T04:20:00.214Z,0
2022-09-10T04:25:00.187Z,0
2022-09-10T04:30:00.209Z,2
2022-09-10T04:35:00.183Z,2
2022-09-10T04:40:00.274Z,3
2022-09-10T04:45:00.258Z,7
2022-09-10T04:50:00.200Z,17
2022-09-10T04:55:00.205Z,39
2022-09-10T05:00:00.249Z,57
2022-09-10T05:05:00.158Z,34
2022-09-10T05:10:00.195Z,78
2022-09-10T05:15:00.181Z,110
2022-09-10T05:20:00.178Z,160
2022-09-10T05:25:00.201Z,191
2022-09-10T05:30:00.249Z,136
2022-09-10T05:35:00.156Z,172
2022-09-10T05:40:00.272Z,312
2022-09-10T05:45:00.185Z,504
2022-09-10T05:50:00.208Z,919
2022-09-10T05:55:00.169Z,1168
2022-09-10T06:00:00.230Z,1161
2022-09-10T06:05:00.189Z,1161
2022-09-10T06:10:00.238Z,1882
2022-09-10T06:15:00.195Z,2115
2022-09-10T06:20:00.198Z,2003
2022-09-10T06:25:00.182Z,2094
2022-09-10T06:30:00.232Z,2117
2022-09-10T06:35:00.209Z,2701
2022-09-10T06:40:00.321Z,3061
2022-09-10T06:45:00.187Z,3053
2022-09-10T06:50:00.498Z,2672
2022-09-10T06:55:00.179Z,5634
2022-09-10T07:00:00.201Z,7153
2022-09-10T07:05:00.205Z,7153
2022-09-10T07:10:00.215Z,8041
2022-09-10T07:15:00.194Z,8389
2022-09-10T07:20:00.265Z,8389
2022-09-10T07:25:00.218Z,7145
2022-09-10T07:30:00.215Z,7145
2022-09-10T07:35:00.193Z,5578
2022-09-10T07:40:00.280Z,5590
2022-09-10T07:45:00.185Z,3805
2022-09-10T07:50:00.198Z,2412
2022-09-10T07:55:00.211Z,2307
2022-09-10T08:00:00.244Z,2389
2022-09-10T08:05:00.207Z,2121
2022-09-10T08:10:00.188Z,2524
2022-09-10T08:15:00.192Z,2109
2022-09-10T08:20:00.174Z,1316
2022-09-10T08:25:00.453Z,1155
2022-09-10T08:30:00.252Z,2135
2022-09-10T08:35:00.233Z,2394
2022-09-10T08:40:00.305Z,2682
2022-09-10T08:45:00.221Z,2104
2022-09-10T08:50:00.207Z,2372
2022-09-10T08:55:00.191Z,2063
2022-09-10T09:00:00.298Z,3005
2022-09-10T09:05:00.190Z,2475
2022-09-10T09:10:00.214Z,4053
2022-09-10T09:15:00.212Z,4319
2022-09-10T09:20:00.230Z,2504
2022-09-10T09:25:00.183Z,2370
2022-09-10T09:30:00.206Z,2667
2022-09-10T09:35:00.237Z,5512
2022-09-10T09:50:00.203Z,4637
2022-09-10T09:55:14.485Z,5224
2022-09-10T10:00:00.269Z,2547
2022-09-10T10:05:00.215Z,5253
2022-09-10T10:10:00.195Z,7190
2022-09-10T10:15:00.214Z,9108
2022-09-10T10:20:00.204Z,9543
2022-09-10T10:25:00.189Z,77535
2022-09-10T10:30:00.251Z,19534
2022-09-10T10:35:00.208Z,82111
2022-09-10T10:40:00.239Z,82111
2022-09-10T10:45:00.215Z,51916
2022-09-10T10:50:00.206Z,8302
2022-09-10T10:55:00.192Z,8015
2022-09-10T11:00:00.221Z,8015
2022-09-10T11:05:00.212Z,7347
2022-09-10T11:10:00.387Z,11929
2022-09-10T11:15:00.170Z,39582
2022-09-10T11:20:24.690Z,15842
2022-09-10T11:25:00.197Z,18531
2022-09-10T11:30:00.203Z,10378
2022-09-10T11:35:00.200Z,4400
2022-09-10T11:40:00.281Z,7403
2022-09-10T11:45:00.199Z,10615
2022-09-10T11:50:00.187Z,10844
2022-09-10T11:55:00.186Z,9335
2022-09-10T12:00:00.216Z,18176
2022-09-10T12:05:00.187Z,18176
2022-09-10T12:10:00.191Z,99793
2022-09-10T12:15:00.185Z,94276
2022-09-10T12:20:00.218Z,96095
2022-09-10T12:25:00.185Z,99266
2022-09-10T12:30:00.211Z,91264
2022-09-10T12:35:00.193Z,91264
2022-09-10T12:40:00.294Z,71335
2022-09-10T12:45:00.200Z,16699
2022-09-10T12:50:00.200Z,27240
2022-09-10T12:55:00.196Z,30123
2022-09-10T13:00:00.224Z,26669
2022-09-10T13:05:00.190Z,79744
2022-09-10T13:10:00.229Z,79744
2022-09-10T13:15:00.194Z,64269
2022-09-10T13:20:00.263Z,78705
2022-09-10T13:25:00.216Z,21888
2022-09-10T13:30:00.333Z,10723
2022-09-10T13:35:00.207Z,9530
2022-09-10T13:40:00.465Z,9102
2022-09-10T13:45:00.189Z,17326
2022-09-10T13:50:00.316Z,17326
2022-09-10T13:55:00.208Z,9581
2022-09-10T14:00:00.397Z,15367
2022-09-10T14:05:00.191Z,15367
2022-09-10T14:10:00.379Z,15367
2022-09-10T14:15:00.225Z,12134
2022-09-10T16:15:00.188Z,3771
2022-09-10T16:20:00.200Z,3297
2022-09-10T16:25:00.183Z,3310
2022-09-10T16:30:00.187Z,4214
2022-09-10T16:35:00.170Z,3292
2022-09-10T16:40:00.286Z,3292
2022-09-10T16:45:00.171Z,2928
2022-09-10T16:50:00.204Z,2595
2022-09-10T16:55:00.189Z,2047
2022-09-10T17:00:00.235Z,1819
2022-09-10T17:05:00.199Z,2095
2022-09-10T17:10:01.150Z,1817
2022-09-10T17:15:00.185Z,1433
2022-09-10T17:20:00.161Z,1170
2022-09-10T17:25:00.191Z,1003
2022-09-10T17:30:00.184Z,734
2022-09-10T17:35:00.215Z,654
2022-09-10T17:40:00.210Z,518
2022-09-10T17:45:00.179Z,518
2022-09-10T17:50:00.190Z,460
2022-09-10T17:55:00.169Z,322
2022-09-10T18:00:00.216Z,172
2022-09-10T18:05:00.178Z,158
2022-09-10T18:10:00.198Z,98
2022-09-10T18:15:00.186Z,52
2022-09-10T18:20:00.178Z,28
2022-09-10T18:25:00.182Z,12
2022-09-10T18:30:00.187Z,6
2022-09-10T18:35:00.223Z,4
2022-09-10T18:40:00.279Z,2
2022-09-10T18:45:00.179Z,0
2022-09-10T18:50:00.179Z,0
2022-09-10T18:55:00.188Z,0
2022-09-10T19:00:00.233Z,0
2022-09-10T19:10:00.177Z,0
2022-09-10T19:15:00.183Z,0
2022-09-10T19:20:00.183Z,0
2022-09-10T19:25:00.162Z,0
2022-09-10T19:30:00.191Z,0
2022-09-10T19:35:00.187Z,0
2022-09-10T19:40:00.284Z,0
2022-09-10T19:45:00.194Z,0
2022-09-10T19:50:00.206Z,0
2022-09-10T19:55:00.187Z,0
2022-09-10T20:00:00.300Z,0
2022-09-10T20:05:00.174Z,0
2022-09-10T20:10:00.193Z,0
2022-09-10T20:15:00.179Z,0
2022-09-10T20:20:00.251Z,0
2022-09-10T20:25:00.181Z,0
2022-09-10T20:30:00.997Z,0
2022-09-10T20:35:00.180Z,0
2022-09-10T20:40:00.278Z,0
2022-09-10T20:45:00.181Z,0
2022-09-10T20:50:00.180Z,0
2022-09-10T20:55:00.178Z,0
2022-09-10T21:00:00.190Z,0
2022-09-10T21:05:00.170Z,0
2022-09-10T21:10:00.199Z,0
2022-09-10T21:15:00.166Z,0
2022-09-10T21:20:00.189Z,0
2022-09-10T21:25:00.183Z,0
2022-09-10T21:30:00.190Z,0
2022-09-10T21:35:00.203Z,0
2022-09-10T21:40:00.452Z,0
2022-09-10T21:45:00.256Z,0
2022-09-10T21:50:00.285Z,0
2022-09-10T21:55:00.207Z,0
2022-09-10T22:00:00.253Z,0
2022-09-10T22:05:00.181Z,0
2022-09-10T22:10:00.178Z,0
2022-09-10T22:15:00.176Z,0
2022-09-10T22:20:00.182Z,0
2022-09-10T22:25:00.194Z,0
2022-09-10T22:30:00.175Z,0
2022-09-10T22:35:00.195Z,0
2022-09-10T22:40:00.353Z,0
2022-09-10T22:45:00.185Z,0
2022-09-10T22:50:00.181Z,0
2022-09-10T22:55:00.174Z,0
2022-09-10T23:00:00.192Z,0
2022-09-10T23:05:00.183Z,0
2022-09-10T23:10:00.210Z,0
2022-09-10T23:15:00.165Z,0
2022-09-10T23:20:00.193Z,0
2022-09-10T23:25:00.171Z,0
2022-09-10T23:30:00.186Z,0
2022-09-10T23:35:00.169Z,0
2022-09-10T23:40:00.257Z,0
2022-09-10T23:45:00.174Z,0
2022-09-10T23:50:00.178Z,0
2022-09-10T23:55:00.153Z,0
